sensor_id;sensor_type;location;lat;lon;timestamp;P1;P4;P2;P0;N10;N4;N25;N1;N05;TS
65875;SPS30;52657;51.128;5.938;2022-11-02T00:01:22;4.34;3.87;2.95;1.74;13.92;13.88;13.64;12.45;8.95;0.89
65875;SPS30;52657;51.128;5.938;2022-11-02T00:03:48;4.88;4.34;3.29;1.90;15.23;15.18;14.91;13.54;9.63;0.89
65875;SPS30;52657;51.128;5.938;2022-11-02T00:06:14;4.09;3.64;2.77;1.62;12.95;12.91;12.68;11.55;8.27;0.89
65875;SPS30;52657;51.128;5.938;2022-11-02T00:08:40;4.54;4.04;3.06;1.77;14.16;14.11;13.86;12.59;8.95;0.90
65875;SPS30;52657;51.128;5.938;2022-11-02T00:11:05;4.34;3.88;2.97;1.77;14.19;14.16;13.92;12.74;9.23;0.90
65875;SPS30;52657;51.128;5.938;2022-11-02T00:13:31;3.99;3.58;2.77;1.69;13.53;13.50;13.28;12.23;8.97;0.88
65875;SPS30;52657;51.128;5.938;2022-11-02T00:15:59;3.77;3.38;2.63;1.62;13.01;12.98;12.78;11.80;8.72;0.88
65875;SPS30;52657;51.128;5.938;2022-11-02T00:18:31;3.78;3.41;2.68;1.69;13.51;13.48;13.29;12.33;9.20;0.85
65875;SPS30;52657;51.128;5.938;2022-11-02T00:21:00;4.01;3.60;2.80;1.73;13.88;13.84;13.63;12.59;9.31;0.85
65875;SPS30;52657;51.128;5.938;2022-11-02T00:23:27;4.51;4.03;3.08;1.83;14.63;14.59;14.35;13.12;9.47;0.88
65875;SPS30;52657;51.128;5.938;2022-11-02T00:25:53;4.72;4.20;3.18;1.83;14.69;14.64;14.38;13.06;9.28;0.91
65875;SPS30;52657;51.128;5.938;2022-11-02T00:28:21;4.72;4.18;3.14;1.76;14.12;14.07;13.80;12.45;8.70;0.94
65875;SPS30;52657;51.128;5.938;2022-11-02T00:30:48;4.39;3.89;2.93;1.66;13.31;13.27;13.02;11.77;8.27;0.94
65875;SPS30;52657;51.128;5.938;2022-11-02T00:33:13;4.59;4.10;3.14;1.87;14.95;14.91;14.66;13.41;9.70;0.90
65875;SPS30;52657;51.128;5.938;2022-11-02T00:35:39;3.99;3.59;2.83;1.79;14.31;14.27;14.07;13.06;9.77;0.87
65875;SPS30;52657;51.128;5.938;2022-11-02T00:38:06;4.12;3.69;2.87;1.76;14.09;14.06;13.84;12.76;9.40;0.89
65875;SPS30;52657;51.128;5.938;2022-11-02T00:40:32;4.10;3.67;2.83;1.71;13.73;13.70;13.48;12.38;9.05;0.90
65875;SPS30;52657;51.128;5.938;2022-11-02T00:42:58;4.16;3.74;2.91;1.80;14.38;14.35;14.13;13.04;9.63;0.89
65875;SPS30;52657;51.128;5.938;2022-11-02T00:45:23;4.11;3.70;2.91;1.83;14.69;14.65;14.44;13.40;10.01;0.86
65875;SPS30;52657;51.128;5.938;2022-11-02T00:47:49;3.76;3.39;2.66;1.68;13.42;13.39;13.20;12.25;9.14;0.85
65875;SPS30;52657;51.128;5.938;2022-11-02T00:50:17;4.25;3.82;3.00;1.89;15.10;15.07;14.85;13.77;10.27;0.86
65875;SPS30;52657;51.128;5.938;2022-11-02T00:52:43;4.02;3.62;2.85;1.80;14.43;14.39;14.19;13.17;9.85;0.86
65875;SPS30;52657;51.128;5.938;2022-11-02T00:55:10;3.75;3.38;2.67;1.70;13.64;13.61;13.43;12.49;9.38;0.85
65875;SPS30;52657;51.128;5.938;2022-11-02T00:57:39;3.97;3.59;2.85;1.84;14.76;14.73;14.54;13.56;10.25;0.84
65875;SPS30;52657;51.128;5.938;2022-11-02T01:00:07;3.71;3.34;2.63;1.66;13.27;13.24;13.05;12.11;9.05;0.86
65875;SPS30;52657;51.128;5.938;2022-11-02T01:02:34;4.25;3.82;2.99;1.86;14.91;14.87;14.65;13.56;10.06;0.86
65875;SPS30;52657;51.128;5.938;2022-11-02T01:05:02;4.28;3.85;3.01;1.88;15.02;14.98;14.76;13.66;10.14;0.85
65875;SPS30;52657;51.128;5.938;2022-11-02T01:07:28;3.81;3.44;2.73;1.77;14.14;14.11;13.93;12.99;9.82;0.84
65875;SPS30;52657;51.128;5.938;2022-11-02T01:09:53;3.79;3.42;2.69;1.71;13.68;13.65;13.46;12.50;9.37;0.85
65875;SPS30;52657;51.128;5.938;2022-11-02T01:12:19;3.72;3.36;2.65;1.69;13.51;13.48;13.30;12.36;9.28;0.86
65875;SPS30;52657;51.128;5.938;2022-11-02T01:14:46;3.80;3.41;2.66;1.65;13.22;13.19;12.99;12.01;8.90;0.88
65875;SPS30;52657;51.128;5.938;2022-11-02T01:17:13;3.85;3.46;2.70;1.68;13.45;13.42;13.22;12.22;9.06;0.88
65875;SPS30;52657;51.128;5.938;2022-11-02T01:19:40;3.77;3.40;2.69;1.73;13.81;13.78;13.59;12.66;9.53;0.86
65875;SPS30;52657;51.128;5.938;2022-11-02T01:22:06;3.74;3.37;2.64;1.66;13.31;13.28;13.09;12.13;9.05;0.86
65875;SPS30;52657;51.128;5.938;2022-11-02T01:24:33;4.12;3.69;2.86;1.75;14.00;13.96;13.75;12.66;9.30;0.88
65875;SPS30;52657;51.128;5.938;2022-11-02T01:26:59;4.39;3.93;3.01;1.80;14.40;14.37;14.13;12.94;9.38;0.91
65875;SPS30;52657;51.128;5.938;2022-11-02T01:29:25;4.37;3.89;2.95;1.71;13.70;13.66;13.42;12.20;8.69;0.93
65875;SPS30;52657;51.128;5.938;2022-11-02T01:31:51;4.81;4.28;3.26;1.91;15.27;15.23;14.96;13.63;9.77;0.91
65875;SPS30;52657;51.128;5.938;2022-11-02T01:34:18;4.23;3.78;2.90;1.73;13.86;13.82;13.59;12.44;9.01;0.90
65875;SPS30;52657;51.128;5.938;2022-11-02T01:36:45;4.05;3.61;2.77;1.64;13.14;13.11;12.89;11.78;8.51;0.91
65875;SPS30;52657;51.128;5.938;2022-11-02T01:39:12;4.68;4.18;3.20;1.90;15.22;15.18;14.92;13.65;9.87;0.91
65875;SPS30;52657;51.128;5.938;2022-11-02T01:41:39;3.82;3.41;2.62;1.56;12.51;12.48;12.27;11.24;8.15;0.90
65875;SPS30;52657;51.128;5.938;2022-11-02T01:46:56;3.77;3.40;2.66;1.67;13.39;13.36;13.16;12.20;9.09;0.88
65875;SPS30;52657;51.128;5.938;2022-11-02T01:49:48;4.29;3.87;3.05;1.94;15.55;15.51;15.30;14.22;10.67;0.87
65875;SPS30;52657;51.128;5.938;2022-11-02T01:52:31;4.04;3.64;2.86;1.80;14.42;14.39;14.18;13.16;9.82;0.87
65875;SPS30;52657;51.128;5.938;2022-11-02T01:55:05;4.12;3.69;2.86;1.74;13.90;13.86;13.64;12.55;9.19;0.90
65875;SPS30;52657;51.128;5.938;2022-11-02T01:57:38;3.63;3.27;2.57;1.62;12.95;12.92;12.74;11.81;8.82;0.87
65875;SPS30;52657;51.128;5.938;2022-11-02T02:00:07;3.35;3.04;2.43;1.59;12.72;12.70;12.54;11.73;8.92;0.84
65875;SPS30;52657;51.128;5.938;2022-11-02T02:03:03;3.62;3.29;2.65;1.77;14.14;14.11;13.94;13.09;10.04;0.85
65875;SPS30;52657;51.128;5.938;2022-11-02T02:05:35;3.39;3.07;2.45;1.61;12.85;12.82;12.66;11.84;9.00;0.85
65875;SPS30;52657;51.128;5.938;2022-11-02T02:08:07;3.49;3.17;2.55;1.69;13.54;13.51;13.35;12.52;9.57;0.84
65875;SPS30;52657;51.128;5.938;2022-11-02T02:10:37;3.32;3.02;2.43;1.62;12.94;12.91;12.76;11.98;9.18;0.85
65875;SPS30;52657;51.128;5.938;2022-11-02T02:13:04;3.59;3.25;2.59;1.70;13.58;13.55;13.38;12.51;9.51;0.85
65875;SPS30;52657;51.128;5.938;2022-11-02T02:15:40;3.73;3.36;2.64;1.66;13.30;13.27;13.08;12.14;9.06;0.88
65875;SPS30;52657;51.128;5.938;2022-11-02T02:18:32;3.60;3.27;2.62;1.74;13.92;13.89;13.72;12.87;9.84;0.83
65875;SPS30;52657;51.128;5.938;2022-11-02T02:27:10;3.33;3.01;2.39;1.55;12.41;12.38;12.22;11.40;8.63;0.86
65875;SPS30;52657;51.128;5.938;2022-11-02T02:35:07;4.12;3.72;2.93;1.87;14.97;14.93;14.73;13.70;10.28;0.86
65875;SPS30;52657;51.128;5.938;2022-11-02T02:37:53;3.99;3.61;2.86;1.85;14.78;14.75;14.55;13.56;10.24;0.85
65875;SPS30;52657;51.128;5.938;2022-11-02T02:43:06;3.66;3.31;2.63;1.70;13.60;13.57;13.39;12.49;9.44;0.85
65875;SPS30;52657;51.128;5.938;2022-11-02T02:45:41;3.51;3.18;2.55;1.68;13.42;13.39;13.22;12.38;9.44;0.83
65875;SPS30;52657;51.128;5.938;2022-11-02T02:48:17;3.89;3.53;2.81;1.83;14.66;14.63;14.44;13.49;10.24;0.85
65875;SPS30;52657;51.128;5.938;2022-11-02T02:50:47;3.84;3.46;2.73;1.74;13.95;13.92;13.73;12.77;9.58;0.87
65875;SPS30;52657;51.128;5.938;2022-11-02T02:54:00;3.64;3.30;2.63;1.71;13.66;13.63;13.46;12.57;9.53;0.85
65875;SPS30;52657;51.128;5.938;2022-11-02T02:56:26;3.20;2.91;2.34;1.56;12.48;12.45;12.30;11.55;8.85;0.83
65875;SPS30;52657;51.128;5.938;2022-11-02T02:59:01;3.30;2.99;2.39;1.56;12.51;12.48;12.32;11.53;8.76;0.85
65875;SPS30;52657;51.128;5.938;2022-11-02T03:01:39;2.98;2.70;2.17;1.43;11.45;11.43;11.29;10.58;8.08;0.83
65875;SPS30;52657;51.128;5.938;2022-11-02T03:04:10;3.19;2.89;2.30;1.50;11.98;11.95;11.79;11.02;8.35;0.85
65875;SPS30;52657;51.128;5.938;2022-11-02T03:06:36;2.96;2.68;2.14;1.40;11.22;11.19;11.05;10.34;7.86;0.85
65875;SPS30;52657;51.128;5.938;2022-11-02T03:12:15;3.67;3.29;2.55;1.56;12.47;12.43;12.24;11.27;8.28;0.90
65875;SPS30;52657;51.128;5.938;2022-11-02T03:17:54;3.85;3.44;2.65;1.59;12.76;12.73;12.52;11.49;8.36;0.91
65875;SPS30;52657;51.128;5.938;2022-11-02T03:20:39;3.50;3.15;2.46;1.54;12.33;12.30;12.12;11.22;8.34;0.88
65875;SPS30;52657;51.128;5.938;2022-11-02T03:26:07;4.05;3.63;2.80;1.69;13.57;13.53;13.32;12.23;8.94;0.90
65875;SPS30;52657;51.128;5.938;2022-11-02T03:31:25;3.76;3.38;2.64;1.65;13.25;13.21;13.02;12.06;8.97;0.87
65875;SPS30;52657;51.128;5.938;2022-11-02T03:34:15;3.48;3.15;2.51;1.64;13.10;13.07;12.90;12.06;9.15;0.84
65875;SPS30;52657;51.128;5.938;2022-11-02T03:37:14;3.26;2.96;2.38;1.58;12.68;12.66;12.50;11.74;8.99;0.82
65875;SPS30;52657;51.128;5.938;2022-11-02T03:39:54;3.23;2.95;2.39;1.63;13.01;12.98;12.83;12.10;9.35;0.81
65875;SPS30;52657;51.128;5.938;2022-11-02T03:42:31;2.98;2.73;2.24;1.55;12.41;12.39;12.26;11.60;9.05;0.80
65875;SPS30;52657;51.128;5.938;2022-11-02T03:45:09;3.12;2.85;2.33;1.61;12.89;12.87;12.73;12.04;9.37;0.82
65875;SPS30;52657;51.128;5.938;2022-11-02T03:47:51;3.25;2.96;2.38;1.58;12.68;12.66;12.51;11.74;8.99;0.84
65875;SPS30;52657;51.128;5.938;2022-11-02T03:50:24;3.30;3.00;2.42;1.62;12.97;12.94;12.79;12.02;9.23;0.84
65875;SPS30;52657;51.128;5.938;2022-11-02T03:53:02;3.48;3.16;2.54;1.68;13.47;13.44;13.28;12.46;9.53;0.84
65875;SPS30;52657;51.128;5.938;2022-11-02T03:55:38;3.22;2.92;2.32;1.52;12.14;12.12;11.96;11.18;8.49;0.84
65875;SPS30;52657;51.128;5.938;2022-11-02T03:58:10;3.06;2.79;2.25;1.50;12.02;12.00;11.85;11.14;8.55;0.82
65875;SPS30;52657;51.128;5.938;2022-11-02T04:00:43;3.30;2.99;2.38;1.55;12.42;12.39;12.23;11.43;8.67;0.83
65875;SPS30;52657;51.128;5.938;2022-11-02T04:03:21;3.37;3.05;2.41;1.54;12.31;12.28;12.11;11.27;8.47;0.84
65875;SPS30;52657;51.128;5.938;2022-11-02T04:05:49;3.10;2.80;2.22;1.43;11.41;11.39;11.23;10.46;7.88;0.84
65875;SPS30;52657;51.128;5.938;2022-11-02T04:08:32;3.24;2.92;2.31;1.49;11.89;11.87;11.71;10.90;8.21;0.83
65875;SPS30;52657;51.128;5.938;2022-11-02T04:11:04;3.70;3.32;2.58;1.59;12.73;12.70;12.50;11.54;8.51;0.87
65875;SPS30;52657;51.128;5.938;2022-11-02T04:14:00;3.77;3.38;2.61;1.58;12.67;12.64;12.44;11.43;8.36;0.89
65875;SPS30;52657;51.128;5.938;2022-11-02T04:16:45;4.17;3.72;2.84;1.67;13.37;13.33;13.10;11.96;8.60;0.91
65875;SPS30;52657;51.128;5.938;2022-11-02T04:19:20;3.95;3.53;2.72;1.63;13.08;13.05;12.84;11.77;8.57;0.91
65875;SPS30;52657;51.128;5.938;2022-11-02T04:21:53;3.87;3.46;2.65;1.57;12.60;12.56;12.35;11.29;8.16;0.93
65875;SPS30;52657;51.128;5.938;2022-11-02T04:24:40;3.98;3.56;2.74;1.64;13.16;13.13;12.91;11.84;8.61;0.92
65875;SPS30;52657;51.128;5.938;2022-11-02T04:27:28;3.59;3.21;2.47;1.49;11.95;11.91;11.72;10.76;7.85;0.90
65875;SPS30;52657;51.128;5.938;2022-11-02T04:29:55;3.74;3.36;2.61;1.61;12.92;12.88;12.69;11.71;8.65;0.89
65875;SPS30;52657;51.128;5.938;2022-11-02T04:32:21;3.85;3.45;2.66;1.61;12.88;12.84;12.64;11.61;8.48;0.90
65875;SPS30;52657;51.128;5.938;2022-11-02T04:35:16;3.84;3.42;2.61;1.54;12.32;12.28;12.07;11.01;7.92;0.93
65875;SPS30;52657;51.128;5.938;2022-11-02T04:37:43;4.26;3.79;2.89;1.69;13.52;13.49;13.25;12.07;8.65;0.93
65875;SPS30;52657;51.128;5.938;2022-11-02T04:40:33;4.10;3.64;2.74;1.55;12.43;12.39;12.16;10.99;7.73;0.96
65875;SPS30;52657;51.128;5.938;2022-11-02T04:42:59;4.60;4.08;3.07;1.73;13.88;13.84;13.57;12.26;8.60;0.95
65875;SPS30;52657;51.128;5.938;2022-11-02T04:45:26;4.47;3.97;3.00;1.71;13.71;13.67;13.42;12.15;8.59;0.94
65875;SPS30;52657;51.128;5.938;2022-11-02T04:47:52;4.31;3.83;2.90;1.67;13.42;13.38;13.13;11.93;8.48;0.93
65875;SPS30;52657;51.128;5.938;2022-11-02T04:50:25;3.58;3.19;2.43;1.42;11.34;11.31;11.11;10.11;7.23;0.93
65875;SPS30;52657;51.128;5.938;2022-11-02T04:52:55;3.71;3.32;2.56;1.55;12.40;12.36;12.16;11.17;8.16;0.90
65875;SPS30;52657;51.128;5.938;2022-11-02T04:55:22;3.98;3.55;2.72;1.61;12.89;12.85;12.63;11.55;8.33;0.91
65875;SPS30;52657;51.128;5.938;2022-11-02T04:57:48;4.55;4.05;3.09;1.80;14.45;14.41;14.15;12.90;9.24;0.92
65875;SPS30;52657;51.128;5.938;2022-11-02T05:00:13;4.19;3.74;2.85;1.67;13.35;13.31;13.08;11.93;8.55;0.90
65875;SPS30;52657;51.128;5.938;2022-11-02T05:02:40;4.20;3.73;2.83;1.63;13.04;13.00;12.77;11.59;8.23;0.93
65875;SPS30;52657;51.128;5.938;2022-11-02T05:05:06;3.91;3.48;2.64;1.53;12.27;12.24;12.02;10.93;7.80;0.92
65875;SPS30;52657;51.128;5.938;2022-11-02T05:07:32;3.88;3.46;2.64;1.55;12.38;12.34;12.13;11.06;7.94;0.91
65875;SPS30;52657;51.128;5.938;2022-11-02T05:09:58;4.44;3.94;2.97;1.68;13.45;13.41;13.15;11.89;8.35;0.95
65875;SPS30;52657;51.128;5.938;2022-11-02T05:12:24;4.57;4.05;3.05;1.72;13.81;13.77;13.51;12.20;8.57;0.96
65875;SPS30;52657;51.128;5.938;2022-11-02T05:14:51;4.20;3.73;2.81;1.60;12.85;12.81;12.57;11.38;8.03;0.95
65875;SPS30;52657;51.128;5.938;2022-11-02T05:17:16;4.51;4.01;3.03;1.73;13.90;13.86;13.60;12.33;8.73;0.94
65875;SPS30;52657;51.128;5.938;2022-11-02T05:19:43;4.25;3.78;2.85;1.64;13.10;13.06;12.82;11.63;8.23;0.95
65875;SPS30;52657;51.128;5.938;2022-11-02T05:22:10;4.62;4.10;3.08;1.73;13.85;13.80;13.54;12.21;8.54;0.96
65875;SPS30;52657;51.128;5.938;2022-11-02T05:24:36;5.38;4.76;3.54;1.95;15.63;15.57;15.26;13.69;9.44;0.97
65875;SPS30;52657;51.128;5.938;2022-11-02T05:27:03;4.82;4.27;3.19;1.78;14.23;14.18;13.90;12.51;8.69;0.96
65875;SPS30;52657;51.128;5.938;2022-11-02T05:29:32;4.62;4.08;3.04;1.68;13.47;13.43;13.16;11.81;8.16;0.97
65875;SPS30;52657;51.128;5.938;2022-11-02T05:31:58;4.56;4.03;2.98;1.61;12.92;12.87;12.60;11.25;7.67;0.98
65875;SPS30;52657;51.128;5.938;2022-11-02T05:34:24;4.79;4.23;3.13;1.70;13.62;13.57;13.29;11.87;8.11;0.98
65875;SPS30;52657;51.128;5.938;2022-11-02T05:36:51;4.29;3.80;2.84;1.58;12.65;12.61;12.36;11.12;7.72;0.96
65875;SPS30;52657;51.128;5.938;2022-11-02T05:39:18;4.42;3.93;2.96;1.69;13.52;13.48;13.23;11.98;8.45;0.94
65875;SPS30;52657;51.128;5.938;2022-11-02T05:41:45;4.42;3.92;2.95;1.68;13.44;13.40;13.15;11.89;8.37;0.95
65875;SPS30;52657;51.128;5.938;2022-11-02T05:44:12;4.52;4.00;2.99;1.67;13.37;13.32;13.06;11.75;8.17;0.95
65875;SPS30;52657;51.128;5.938;2022-11-02T05:46:38;4.96;4.40;3.29;1.84;14.74;14.69;14.40;12.97;9.04;0.95
65875;SPS30;52657;51.128;5.938;2022-11-02T05:49:03;4.81;4.26;3.18;1.76;14.15;14.10;13.82;12.42;8.62;0.96
65875;SPS30;52657;51.128;5.938;2022-11-02T05:51:29;4.98;4.40;3.26;1.78;14.23;14.18;13.89;12.42;8.50;0.98
65875;SPS30;52657;51.128;5.938;2022-11-02T05:53:55;4.84;4.28;3.18;1.74;13.95;13.90;13.62;12.20;8.38;0.97
65875;SPS30;52657;51.128;5.938;2022-11-02T05:56:20;5.29;4.68;3.48;1.92;15.37;15.32;15.00;13.46;9.28;0.96
65875;SPS30;52657;51.128;5.938;2022-11-02T05:58:46;4.86;4.30;3.20;1.75;14.04;13.99;13.71;12.28;8.45;0.97
65875;SPS30;52657;51.128;5.938;2022-11-02T06:01:12;4.44;3.94;2.96;1.68;13.47;13.42;13.17;11.91;8.38;0.95
65875;SPS30;52657;51.128;5.938;2022-11-02T06:03:37;4.77;4.22;3.14;1.72;13.80;13.75;13.47;12.07;8.31;0.96
65875;SPS30;52657;51.128;5.938;2022-11-02T06:06:05;5.07;4.48;3.34;1.83;14.71;14.66;14.36;12.88;8.88;0.95
65875;SPS30;52657;51.128;5.938;2022-11-02T06:08:34;4.65;4.11;3.07;1.70;13.62;13.57;13.30;11.95;8.28;0.95
65875;SPS30;52657;51.128;5.938;2022-11-02T06:11:04;5.44;4.80;3.56;1.93;15.46;15.41;15.09;13.48;9.20;0.97
65875;SPS30;52657;51.128;5.938;2022-11-02T06:13:34;4.66;4.11;3.03;1.63;13.08;13.04;12.76;11.37;7.72;0.99
65875;SPS30;52657;51.128;5.938;2022-11-02T06:16:01;5.13;4.51;3.32;1.76;14.13;14.08;13.77;12.23;8.22;1.01
65875;SPS30;52657;51.128;5.938;2022-11-02T06:18:28;5.48;4.82;3.52;1.83;14.68;14.63;14.29;12.62;8.36;1.04
65875;SPS30;52657;51.128;5.938;2022-11-02T06:20:58;5.45;4.79;3.50;1.83;14.67;14.62;14.28;12.62;8.39;1.03
65875;SPS30;52657;51.128;5.938;2022-11-02T06:23:24;4.89;4.30;3.15;1.65;13.23;13.19;12.89;11.40;7.59;1.04
65875;SPS30;52657;51.128;5.938;2022-11-02T06:25:51;4.97;4.38;3.24;1.74;13.98;13.93;13.63;12.16;8.26;1.01
65875;SPS30;52657;51.128;5.938;2022-11-02T06:28:18;4.74;4.19;3.10;1.67;13.42;13.37;13.09;11.68;7.96;1.00
65875;SPS30;52657;51.128;5.938;2022-11-02T06:30:45;5.26;4.65;3.46;1.90;15.19;15.14;14.83;13.29;9.15;0.98
65875;SPS30;52657;51.128;5.938;2022-11-02T06:33:10;5.01;4.44;3.31;1.84;14.75;14.70;14.41;12.95;8.99;0.98
65875;SPS30;52657;51.128;5.938;2022-11-02T06:35:36;5.28;4.66;3.44;1.86;14.89;14.84;14.52;12.95;8.81;1.00
65875;SPS30;52657;51.128;5.938;2022-11-02T06:38:02;4.92;4.34;3.20;1.72;13.80;13.75;13.45;11.99;8.13;1.00
65875;SPS30;52657;51.128;5.938;2022-11-02T06:40:27;4.63;4.09;3.04;1.66;13.27;13.23;12.95;11.59;7.94;0.97
65875;SPS30;52657;51.128;5.938;2022-11-02T06:42:54;4.60;4.08;3.08;1.76;14.09;14.05;13.78;12.48;8.81;0.94
65875;SPS30;52657;51.128;5.938;2022-11-02T06:45:20;4.50;4.00;3.01;1.70;13.64;13.60;13.34;12.05;8.47;0.96
65875;SPS30;52657;51.128;5.938;2022-11-02T06:47:47;4.95;4.38;3.28;1.82;14.62;14.58;14.29;12.86;8.94;0.97
65875;SPS30;52657;51.128;5.938;2022-11-02T06:50:13;4.50;3.99;2.99;1.68;13.46;13.42;13.16;11.86;8.29;0.96
65875;SPS30;52657;51.128;5.938;2022-11-02T06:52:42;4.77;4.23;3.16;1.76;14.14;14.09;13.81;12.43;8.65;0.95
65875;SPS30;52657;51.128;5.938;2022-11-02T06:55:11;5.44;4.81;3.57;1.95;15.63;15.58;15.26;13.66;9.38;0.97
65875;SPS30;52657;51.128;5.938;2022-11-02T06:57:38;4.96;4.38;3.26;1.79;14.39;14.34;14.05;12.60;8.69;0.96
65875;SPS30;52657;51.128;5.938;2022-11-02T07:00:06;5.94;5.27;3.95;2.22;17.82;17.76;17.42;15.72;11.00;0.95
65875;SPS30;52657;51.128;5.938;2022-11-02T07:02:35;4.88;4.33;3.26;1.86;14.88;14.83;14.56;13.17;9.29;0.95
65875;SPS30;52657;51.128;5.938;2022-11-02T07:05:01;5.19;4.62;3.49;1.99;15.98;15.93;15.64;14.17;10.03;0.95
65875;SPS30;52657;51.128;5.938;2022-11-02T07:07:26;4.87;4.34;3.30;1.93;15.44;15.40;15.13;13.78;9.87;0.94
65875;SPS30;52657;51.128;5.938;2022-11-02T07:09:52;4.07;3.63;2.77;1.63;13.02;12.99;12.76;11.64;8.36;0.95
65875;SPS30;52657;51.128;5.938;2022-11-02T07:12:18;5.31;4.71;3.54;1.99;15.98;15.93;15.63;14.11;9.88;0.97
65875;SPS30;52657;51.128;5.938;2022-11-02T07:14:45;4.88;4.33;3.23;1.80;14.44;14.39;14.11;12.69;8.83;0.97
65875;SPS30;52657;51.128;5.938;2022-11-02T07:17:10;4.87;4.32;3.24;1.82;14.55;14.51;14.23;12.83;8.96;0.95
65875;SPS30;52657;51.128;5.938;2022-11-02T07:19:36;4.39;3.90;2.93;1.66;13.28;13.24;12.99;11.73;8.24;0.95
65875;SPS30;52657;51.128;5.938;2022-11-02T07:22:02;4.85;4.29;3.20;1.77;14.19;14.14;13.86;12.45;8.62;0.96
65875;SPS30;52657;51.128;5.938;2022-11-02T07:24:28;5.50;4.85;3.57;1.90;15.26;15.20;14.87;13.22;8.92;0.99
65875;SPS30;52657;51.128;5.938;2022-11-02T07:26:53;5.34;4.70;3.44;1.81;14.51;14.46;14.13;12.51;8.35;1.01
65875;SPS30;52657;51.128;5.938;2022-11-02T07:29:19;6.04;5.30;3.86;1.99;15.97;15.91;15.54;13.68;9.01;1.03
65875;SPS30;52657;51.128;5.938;2022-11-02T07:31:45;5.77;5.07;3.70;1.92;15.43;15.37;15.01;13.25;8.77;1.02
65875;SPS30;52657;51.128;5.938;2022-11-02T07:34:11;5.10;4.49;3.29;1.73;13.88;13.83;13.52;11.97;8.00;1.01
65875;SPS30;52657;51.128;5.938;2022-11-02T07:36:37;5.70;5.02;3.69;1.96;15.74;15.68;15.33;13.62;9.17;1.00
65875;SPS30;52657;51.128;5.938;2022-11-02T07:39:04;6.29;5.54;4.07;2.15;17.24;17.18;16.80;14.90;9.99;1.00
65875;SPS30;52657;51.128;5.938;2022-11-02T07:41:31;5.58;4.91;3.62;1.93;15.47;15.41;15.08;13.41;9.05;0.98
65875;SPS30;52657;51.128;5.938;2022-11-02T07:43:58;5.43;4.79;3.55;1.93;15.47;15.42;15.10;13.50;9.23;0.98
65875;SPS30;52657;51.128;5.938;2022-11-02T07:46:30;5.74;5.06;3.72;1.98;15.86;15.80;15.45;13.73;9.25;0.99
65875;SPS30;52657;51.128;5.938;2022-11-02T07:48:56;6.64;5.82;4.21;2.12;17.05;16.98;16.56;14.49;9.38;1.04
65875;SPS30;52657;51.128;5.938;2022-11-02T07:51:22;5.89;5.17;3.77;1.94;15.59;15.53;15.17;13.36;8.79;1.02
65875;SPS30;52657;51.128;5.938;2022-11-02T07:53:48;5.75;5.05;3.69;1.91;15.35;15.30;14.94;13.18;8.72;1.01
65875;SPS30;52657;51.128;5.938;2022-11-02T07:56:13;6.32;5.56;4.07;2.14;17.15;17.09;16.70;14.79;9.87;1.00
65875;SPS30;52657;51.128;5.938;2022-11-02T07:58:39;5.44;4.80;3.56;1.94;15.57;15.51;15.19;13.59;9.31;0.98
65875;SPS30;52657;51.128;5.938;2022-11-02T08:01:05;5.80;5.13;3.81;2.08;16.70;16.64;16.30;14.60;10.03;0.98
65875;SPS30;52657;51.128;5.938;2022-11-02T08:03:30;5.17;4.57;3.42;1.90;15.22;15.17;14.87;13.37;9.29;0.97
65875;SPS30;52657;51.128;5.938;2022-11-02T08:05:59;5.72;5.05;3.75;2.04;16.35;16.30;15.96;14.27;9.78;0.98
65875;SPS30;52657;51.128;5.938;2022-11-02T08:08:26;5.70;5.04;3.77;2.10;16.81;16.76;16.43;14.78;10.27;0.96
65875;SPS30;52657;51.128;5.938;2022-11-02T08:10:51;5.42;4.79;3.56;1.95;15.63;15.58;15.26;13.67;9.40;0.98
65875;SPS30;52657;51.128;5.938;2022-11-02T08:13:21;5.60;4.96;3.70;2.06;16.50;16.45;16.12;14.50;10.07;0.96
65875;SPS30;52657;51.128;5.938;2022-11-02T08:15:49;5.64;4.99;3.73;2.08;16.67;16.62;16.29;14.66;10.20;0.96
65875;SPS30;52657;51.128;5.938;2022-11-02T08:18:16;5.74;5.09;3.80;2.12;16.96;16.90;16.57;14.90;10.36;0.96
65875;SPS30;52657;51.128;5.938;2022-11-02T08:20:47;5.93;5.26;3.94;2.21;17.74;17.69;17.34;15.64;10.93;0.97
65875;SPS30;52657;51.128;5.938;2022-11-02T08:23:14;5.78;5.13;3.86;2.18;17.48;17.42;17.09;15.44;10.84;0.96
65875;SPS30;52657;51.128;5.938;2022-11-02T08:25:41;6.47;5.72;4.27;2.37;18.97;18.90;18.53;16.65;11.53;0.97
65875;SPS30;52657;51.128;5.938;2022-11-02T08:28:10;5.49;4.86;3.63;2.01;16.11;16.06;15.74;14.14;9.80;0.96
65875;SPS30;52657;51.128;5.938;2022-11-02T08:30:39;5.68;5.03;3.77;2.11;16.94;16.88;16.55;14.92;10.42;0.96
65875;SPS30;52657;51.128;5.938;2022-11-02T08:33:09;6.09;5.39;4.03;2.24;17.93;17.88;17.52;15.76;10.94;0.97
65875;SPS30;52657;51.128;5.938;2022-11-02T08:35:38;6.11;5.39;3.98;2.14;17.19;17.13;16.76;14.95;10.16;1.00
65875;SPS30;52657;51.128;5.938;2022-11-02T08:38:05;5.68;5.06;3.84;2.23;17.85;17.80;17.48;15.90;11.34;0.94
65875;SPS30;52657;51.128;5.938;2022-11-02T08:40:32;7.09;6.31;4.80;2.79;22.38;22.31;21.91;19.95;14.26;0.93
65875;SPS30;52657;51.128;5.938;2022-11-02T08:42:59;6.10;5.42;4.10;2.36;18.88;18.82;18.48;16.77;11.89;0.95
65875;SPS30;52657;51.128;5.938;2022-11-02T08:45:28;5.22;4.63;3.48;1.97;15.80;15.75;15.45;13.96;9.80;0.96
65875;SPS30;52657;51.128;5.938;2022-11-02T08:47:54;5.18;4.60;3.46;1.96;15.70;15.65;15.35;13.87;9.75;0.95
65875;SPS30;52657;51.128;5.938;2022-11-02T08:50:20;5.63;4.98;3.69;2.02;16.17;16.11;15.78;14.12;9.69;0.97
65875;SPS30;52657;51.128;5.938;2022-11-02T08:52:47;5.97;5.25;3.85;2.03;16.28;16.22;15.86;14.05;9.40;1.02
65875;SPS30;52657;51.128;5.938;2022-11-02T08:55:13;5.19;4.58;3.38;1.82;14.62;14.57;14.26;12.72;8.65;1.00
65875;SPS30;52657;51.128;5.938;2022-11-02T08:57:48;5.51;4.88;3.65;2.04;16.35;16.29;15.97;14.38;10.02;0.96
65875;SPS30;52657;51.128;5.938;2022-11-02T09:00:20;4.70;4.18;3.18;1.85;14.79;14.75;14.49;13.18;9.41;0.95
65875;SPS30;52657;51.128;5.938;2022-11-02T09:02:57;4.52;4.01;3.01;1.70;13.65;13.60;13.34;12.05;8.46;0.97
65875;SPS30;52657;51.128;5.938;2022-11-02T09:05:24;5.09;4.50;3.35;1.85;14.80;14.76;14.46;12.97;8.95;0.99
65875;SPS30;52657;51.128;5.938;2022-11-02T09:07:53;4.38;3.88;2.92;1.65;13.23;13.19;12.94;11.69;8.20;0.98
65875;SPS30;52657;51.128;5.938;2022-11-02T09:10:24;5.11;4.53;3.42;1.94;15.54;15.50;15.20;13.75;9.68;0.96
65875;SPS30;52657;51.128;5.938;2022-11-02T09:12:50;5.75;5.09;3.79;2.08;16.69;16.64;16.30;14.62;10.08;0.99
65875;SPS30;52657;51.128;5.938;2022-11-02T09:15:17;5.20;4.59;3.40;1.85;14.82;14.77;14.46;12.92;8.84;0.99
65875;SPS30;52657;51.128;5.938;2022-11-02T09:17:46;5.87;5.18;3.83;2.07;16.62;16.56;16.21;14.47;9.87;0.99
65875;SPS30;52657;51.128;5.938;2022-11-02T09:20:15;5.74;5.06;3.73;1.99;15.98;15.92;15.58;13.86;9.37;1.01
65875;SPS30;52657;51.128;5.938;2022-11-02T09:22:43;5.44;4.80;3.54;1.90;15.23;15.17;14.85;13.22;8.96;1.01
65875;SPS30;52657;51.128;5.938;2022-11-02T09:25:10;6.21;5.47;4.03;2.16;17.29;17.23;16.85;15.00;10.14;1.02
65875;SPS30;52657;51.128;5.938;2022-11-02T09:27:37;5.53;4.87;3.59;1.92;15.39;15.34;15.00;13.35;9.02;1.01
65875;SPS30;52657;51.128;5.938;2022-11-02T09:30:03;5.67;5.00;3.68;1.96;15.69;15.64;15.29;13.59;9.16;1.00
65875;SPS30;52657;51.128;5.938;2022-11-02T09:32:30;6.21;5.45;3.97;2.05;16.43;16.37;15.98;14.08;9.27;1.02
65875;SPS30;52657;51.128;5.938;2022-11-02T09:34:58;5.61;4.94;3.63;1.92;15.39;15.33;14.99;13.30;8.92;1.00
65875;SPS30;52657;51.128;5.938;2022-11-02T09:37:26;5.80;5.10;3.73;1.96;15.71;15.65;15.30;13.54;9.03;1.00
65875;SPS30;52657;51.128;5.938;2022-11-02T09:39:52;5.94;5.23;3.84;2.03;16.29;16.24;15.87;14.08;9.45;1.00
65875;SPS30;52657;51.128;5.938;2022-11-02T09:42:22;5.72;5.04;3.71;1.98;15.91;15.86;15.51;13.80;9.33;1.00
65875;SPS30;52657;51.128;5.938;2022-11-02T09:45:11;5.67;5.00;3.68;1.96;15.74;15.68;15.34;13.64;9.21;0.99
65875;SPS30;52657;51.128;5.938;2022-11-02T09:47:42;6.48;5.72;4.23;2.29;18.37;18.31;17.92;16.01;10.92;0.99
65875;SPS30;52657;51.128;5.938;2022-11-02T09:50:23;5.34;4.72;3.50;1.90;15.25;15.20;14.88;13.31;9.11;0.98
65875;SPS30;52657;51.128;5.938;2022-11-02T09:52:56;6.17;5.45;4.06;2.23;17.92;17.86;17.49;15.69;10.82;0.98
65875;SPS30;52657;51.128;5.938;2022-11-02T09:55:33;5.60;4.93;3.61;1.89;15.20;15.14;14.80;13.10;8.74;1.02